createdAt,value
2019-03-30T00:01:43.581Z,98404.99
2019-03-30T00:04:18.085Z,98399.03
2019-03-30T00:06:52.519Z,98406.38
2019-03-30T00:09:27.014Z,98405.28
2019-03-30T00:12:02.119Z,98406.66
2019-03-30T00:14:36.752Z,98412.62
2019-03-30T00:17:12.584Z,98409.64
2019-03-30T00:19:47.845Z,98411.50
2019-03-30T00:22:22.383Z,98415.28
2019-03-30T00:24:57.508Z,98422.02
2019-03-30T00:27:33.649Z,98423.19
2019-03-30T00:30:12.283Z,98417.77
2019-03-30T00:32:47.172Z,98418.28
2019-03-30T00:35:21.897Z,98423.16
2019-03-30T00:37:56.925Z,98422.63
2019-03-30T00:40:33.706Z,98422.63
2019-03-30T00:43:07.826Z,98417.76
2019-03-30T00:45:43.864Z,98416.63
2019-03-30T00:48:19.900Z,98424.42
2019-03-30T00:50:56.285Z,98422.33
2019-03-30T00:53:35.385Z,98430.09
2019-03-30T00:56:10.960Z,98424.98
2019-03-30T00:58:47.268Z,98425.95
2019-03-30T01:01:24.350Z,98424.33
2019-03-30T01:04:01.708Z,98424.81
2019-03-30T01:06:37.440Z,98419.69
2019-03-30T01:09:15.065Z,98421.58
2019-03-30T01:11:52.765Z,98421.91
2019-03-30T01:14:28.662Z,98420.83
2019-03-30T01:17:07.847Z,98420.16
2019-03-30T01:19:43.452Z,98413.30
2019-03-30T01:22:19.626Z,98412.95
2019-03-30T01:25:01.118Z,98413.77
2019-03-30T01:27:39.858Z,98411.01
2019-03-30T01:30:22.926Z,98412.27
2019-03-30T01:32:55.430Z,98412.86
2019-03-30T01:35:30.341Z,98414.48
2019-03-30T01:38:06.313Z,98412.32
2019-03-30T01:40:40.807Z,98411.73
2019-03-30T01:43:17.095Z,98406.38
2019-03-30T01:45:51.959Z,98411.08
2019-03-30T01:48:26.660Z,98406.52
2019-03-30T01:51:01.445Z,98401.55
2019-03-30T01:53:37.102Z,98399.39
2019-03-30T01:56:12.092Z,98399.60
2019-03-30T01:58:49.382Z,98386.75
2019-03-30T02:01:24.302Z,98387.48
2019-03-30T02:03:58.580Z,98391.44
2019-03-30T02:06:33.863Z,98384.41
2019-03-30T02:09:10.107Z,98376.11
2019-03-30T02:11:44.285Z,98382.17
2019-03-30T02:14:26.758Z,98371.45
2019-03-30T02:17:01.292Z,98378.40
2019-03-30T02:19:35.422Z,98365.22
2019-03-30T02:22:11.216Z,98362.58
2019-03-30T02:24:45.355Z,98356.96
2019-03-30T02:32:33.164Z,98342.98
2019-03-30T02:37:49.634Z,98338.64
2019-03-30T02:40:25.131Z,98343.70
2019-03-30T02:42:59.224Z,98331.73
2019-03-30T02:45:33.399Z,98329.17
2019-03-30T02:48:07.854Z,98321.81
2019-03-30T02:50:50.163Z,98318.66
2019-03-30T02:53:17.630Z,98324.27
2019-03-30T02:55:52.228Z,98321.00
2019-03-30T02:58:26.717Z,98315.20
2019-03-30T03:01:03.232Z,98309.48
2019-03-30T03:03:39.434Z,98314.47
2019-03-30T03:06:16.179Z,98319.56
2019-03-30T03:08:52.381Z,98302.90
2019-03-30T03:11:27.195Z,98306.77
2019-03-30T03:14:02.366Z,98300.85
2019-03-30T03:19:14.019Z,98298.66
2019-03-30T03:24:20.008Z,98296.40
2019-03-30T03:26:54.732Z,98295.70
2019-03-30T03:29:28.773Z,98296.70
2019-03-30T03:32:03.385Z,98295.34
2019-03-30T03:34:37.917Z,98294.91
2019-03-30T03:37:13.780Z,98295.18
2019-03-30T03:39:47.911Z,98289.48
2019-03-30T03:42:23.451Z,98281.16
2019-03-30T03:44:57.678Z,98286.98
2019-03-30T03:47:35.175Z,98289.24
2019-03-30T03:50:11.955Z,98279.93
2019-03-30T03:52:47.536Z,98275.59
2019-03-30T03:55:21.869Z,98276.44
2019-03-30T03:57:56.952Z,98278.57
2019-03-30T04:00:34.049Z,98269.42
2019-03-30T04:03:11.161Z,98278.82
2019-03-30T04:05:47.622Z,98270.66
2019-03-30T04:08:22.303Z,98282.14
2019-03-30T04:10:59.007Z,98279.44
2019-03-30T04:13:33.937Z,98268.36
2019-03-30T04:16:09.175Z,98268.30
2019-03-30T04:18:47.698Z,98274.02
2019-03-30T04:21:21.108Z,98276.64
2019-03-30T04:24:15.114Z,98262.56
2019-03-30T04:26:49.782Z,98265.58
2019-03-30T04:29:24.025Z,98262.83
2019-03-30T04:31:58.731Z,98261.23
2019-03-30T04:34:33.773Z,98265.95
2019-03-30T04:37:08.443Z,98258.50
2019-03-30T04:39:44.097Z,98265.41
2019-03-30T04:42:19.001Z,98262.41
2019-03-30T04:44:55.198Z,98262.99
2019-03-30T04:47:32.378Z,98262.44
2019-03-30T04:50:10.047Z,98255.16
2019-03-30T04:52:45.623Z,98244.81
2019-03-30T04:55:20.350Z,98255.24
2019-03-30T04:57:57.761Z,98248.61
2019-03-30T05:00:30.634Z,98240.67
2019-03-30T05:03:07.893Z,98238.27
2019-03-30T05:05:43.232Z,98237.37
2019-03-30T05:08:19.410Z,98233.44
2019-03-30T05:10:53.950Z,98231.75
2019-03-30T05:13:28.727Z,98236.38
2019-03-30T05:16:04.089Z,98234.53
2019-03-30T05:18:38.804Z,98228.65
2019-03-30T05:21:14.298Z,98225.05
2019-03-30T05:23:49.160Z,98226.42
2019-03-30T05:26:23.777Z,98225.42
2019-03-30T05:28:58.555Z,98225.39
2019-03-30T05:31:32.739Z,98225.58
2019-03-30T05:34:07.432Z,98219.79
2019-03-30T05:36:43.593Z,98223.06
2019-03-30T05:39:18.176Z,98221.09
2019-03-30T05:41:54.134Z,98218.04
2019-03-30T05:44:28.687Z,98222.41
2019-03-30T05:47:03.320Z,98224.31
2019-03-30T05:49:40.033Z,98210.80
2019-03-30T05:52:26.424Z,98220.84
2019-03-30T05:54:58.897Z,98218.66
2019-03-30T05:57:38.604Z,98221.17
2019-03-30T06:00:14.082Z,98223.18
2019-03-30T06:02:50.998Z,98234.41
2019-03-30T06:05:26.643Z,98223.52
2019-03-30T06:08:01.248Z,98217.11
2019-03-30T06:10:38.980Z,98220.67
2019-03-30T06:13:13.395Z,98221.48
2019-03-30T06:15:47.716Z,98223.02
2019-03-30T06:18:21.595Z,98220.08
2019-03-30T06:20:56.829Z,98217.52
2019-03-30T06:23:33.118Z,98222.63
2019-03-30T06:26:08.689Z,98223.44
2019-03-30T06:28:43.885Z,98215.33
2019-03-30T06:31:18.810Z,98225.96
2019-03-30T06:34:05.835Z,98220.58
2019-03-30T06:36:41.135Z,98220.08
2019-03-30T06:39:16.884Z,98227.47
2019-03-30T06:41:51.121Z,98229.53
2019-03-30T06:44:25.806Z,98232.65
2019-03-30T06:47:03.360Z,98226.20
2019-03-30T06:49:39.755Z,98228.38
2019-03-30T06:52:14.982Z,98231.73
2019-03-30T06:54:49.435Z,98244.42
2019-03-30T06:57:24.255Z,98224.70
2019-03-30T06:59:58.741Z,98226.03
2019-03-30T07:02:33.754Z,98228.31
2019-03-30T07:05:09.721Z,98229.84
2019-03-30T07:07:46.937Z,98223.87
2019-03-30T07:10:21.214Z,98242.03
2019-03-30T07:12:58.999Z,98237.25
2019-03-30T07:15:33.986Z,98237.77
2019-03-30T07:18:09.294Z,98240.63
2019-03-30T07:20:43.873Z,98240.98
2019-03-30T07:23:17.888Z,98247.86
2019-03-30T07:25:55.725Z,98251.59
2019-03-30T07:28:29.947Z,98248.55
2019-03-30T07:31:05.129Z,98243.41
2019-03-30T07:33:40.218Z,98246.44
2019-03-30T07:36:14.679Z,98244.12
2019-03-30T07:38:49.192Z,98259.00
2019-03-30T07:41:29.157Z,98262.45
2019-03-30T07:44:03.868Z,98261.96
2019-03-30T07:46:38.270Z,98253.97
2019-03-30T07:49:12.953Z,98259.97
2019-03-30T07:51:47.925Z,98268.87
2019-03-30T07:54:22.906Z,98273.07
2019-03-30T07:57:05.011Z,98273.16
2019-03-30T07:59:37.256Z,98266.84
2019-03-30T08:02:11.866Z,98274.98
2019-03-30T08:04:48.262Z,98268.92
2019-03-30T08:07:23.533Z,98268.19
2019-03-30T08:09:58.735Z,98280.38
2019-03-30T08:12:36.428Z,98276.56
2019-03-30T08:15:12.295Z,98281.56
2019-03-30T08:17:47.373Z,98287.27
2019-03-30T08:20:25.527Z,98295.41
2019-03-30T08:23:06.663Z,98297.10
2019-03-30T08:25:54.394Z,98296.80
2019-03-30T08:28:30.300Z,98321.38
2019-03-30T08:31:06.493Z,98317.32
2019-03-30T08:33:41.896Z,98318.83
2019-03-30T08:36:20.913Z,98318.11
2019-03-30T08:38:57.304Z,98337.33
2019-03-30T08:41:33.035Z,98349.41
2019-03-30T08:44:14.445Z,98343.12
2019-03-30T08:46:51.255Z,98356.70
2019-03-30T08:49:26.660Z,98363.16
2019-03-30T08:52:06.090Z,98360.00
2019-03-30T08:57:43.968Z,98381.64
2019-03-30T09:00:21.964Z,98393.66
2019-03-30T09:02:54.790Z,98388.53
2019-03-30T09:05:45.775Z,98394.77
2019-03-30T09:11:18.259Z,98412.88
2019-03-30T09:13:53.959Z,98407.05
2019-03-30T09:16:30.082Z,98427.19
2019-03-30T09:19:04.490Z,98429.48
2019-03-30T09:21:41.254Z,98435.94
2019-03-30T09:24:16.680Z,98435.66
2019-03-30T09:26:55.196Z,98445.21
2019-03-30T09:29:31.056Z,98456.39
2019-03-30T09:32:14.155Z,98467.50
2019-03-30T09:34:45.028Z,98465.09
2019-03-30T09:37:24.942Z,98474.32
2019-03-30T09:40:00.375Z,98482.74
2019-03-30T09:42:35.591Z,98483.84
2019-03-30T09:45:14.149Z,98495.23
2019-03-30T09:47:50.186Z,98499.84
2019-03-30T09:50:26.800Z,98509.05
2019-03-30T09:53:06.880Z,98514.75
2019-03-30T09:55:42.220Z,98517.98
2019-03-30T09:58:21.105Z,98528.95
2019-03-30T10:00:55.417Z,98524.38
2019-03-30T10:03:31.092Z,98541.77
2019-03-30T10:06:10.733Z,98555.20
2019-03-30T10:08:46.699Z,98552.17
2019-03-30T10:11:21.567Z,98559.30
2019-03-30T10:13:56.405Z,98564.77
2019-03-30T10:16:32.095Z,98564.16
2019-03-30T10:19:06.727Z,98570.89
2019-03-30T10:21:41.427Z,98568.65
2019-03-30T10:24:17.095Z,98575.39
2019-03-30T10:26:53.043Z,98581.34
2019-03-30T10:29:31.084Z,98592.12
2019-03-30T10:32:04.697Z,98594.03
2019-03-30T10:34:41.703Z,98601.86
2019-03-30T10:37:17.282Z,98607.78
2019-03-30T10:39:54.668Z,98602.12
2019-03-30T10:42:36.085Z,98615.92
2019-03-30T10:45:17.961Z,98611.05
2019-03-30T10:47:55.469Z,98633.98
2019-03-30T10:50:32.630Z,98636.61
2019-03-30T10:53:09.582Z,98639.34
2019-03-30T10:55:44.810Z,98647.11
2019-03-30T10:58:25.937Z,98663.33
2019-03-30T11:01:01.458Z,98668.73
2019-03-30T11:03:37.048Z,98665.41
2019-03-30T11:06:14.937Z,98659.78
2019-03-30T11:08:52.725Z,98677.13
2019-03-30T11:11:32.239Z,98671.09
2019-03-30T11:14:07.669Z,98676.75
2019-03-30T11:16:42.529Z,98683.01
2019-03-30T11:19:17.529Z,98686.74
2019-03-30T11:21:53.639Z,98693.39
2019-03-30T11:24:29.243Z,98695.74
2019-03-30T11:27:05.897Z,98695.42
2019-03-30T11:29:41.947Z,98700.62
2019-03-30T11:32:20.136Z,98694.49
2019-03-30T11:34:56.360Z,98706.70
2019-03-30T11:37:31.616Z,98708.79
2019-03-30T11:40:09.335Z,98715.87
2019-03-30T11:42:44.313Z,98719.52
2019-03-30T11:45:20.253Z,98718.90
2019-03-30T11:47:55.081Z,98731.35
2019-03-30T11:50:32.282Z,98729.47
2019-03-30T11:53:07.267Z,98730.00
2019-03-30T11:55:43.488Z,98732.45
2019-03-30T11:58:19.125Z,98739.57
2019-03-30T12:00:55.547Z,98744.05
2019-03-30T12:03:31.134Z,98752.59
2019-03-30T12:06:06.729Z,98752.59
2019-03-30T12:08:43.959Z,98754.56
2019-03-30T12:11:30.124Z,98755.53
2019-03-30T12:14:07.215Z,98759.05
2019-03-30T12:16:42.432Z,98760.07
2019-03-30T12:19:18.760Z,98771.02
2019-03-30T12:21:54.926Z,98770.05
2019-03-30T12:24:32.285Z,98778.80
2019-03-30T12:27:07.491Z,98776.56
2019-03-30T12:29:44.555Z,98787.83
2019-03-30T12:32:18.199Z,98795.69
2019-03-30T12:34:52.995Z,98788.52
2019-03-30T12:37:27.670Z,98790.92
2019-03-30T12:40:03.061Z,98788.70
2019-03-30T12:42:37.548Z,98797.70
2019-03-30T12:45:12.475Z,98804.33
2019-03-30T12:47:52.302Z,98810.55
2019-03-30T12:50:27.068Z,98811.61
2019-03-30T12:53:02.914Z,98812.72
2019-03-30T12:58:15.372Z,98816.34
2019-03-30T13:00:50.313Z,98805.74
2019-03-30T13:03:25.289Z,98816.03
2019-03-30T13:06:02.429Z,98818.84
2019-03-30T13:08:37.862Z,98819.95
2019-03-30T13:11:14.619Z,98825.99
2019-03-30T13:13:49.472Z,98826.74
2019-03-30T13:16:31.520Z,98833.05
2019-03-30T13:19:07.721Z,98827.34
2019-03-30T13:21:52.670Z,98832.39
2019-03-30T13:24:22.809Z,98839.88
2019-03-30T13:26:58.136Z,98838.66
2019-03-30T13:29:32.731Z,98846.59
2019-03-30T13:32:07.917Z,98838.32
2019-03-30T13:34:42.126Z,98846.10
2019-03-30T13:37:25.739Z,98852.20
2019-03-30T13:40:00.642Z,98856.68
2019-03-30T13:42:35.094Z,98853.25
2019-03-30T13:45:11.236Z,98856.90
2019-03-30T13:47:45.630Z,98856.73
2019-03-30T13:50:19.541Z,98855.27
2019-03-30T13:52:53.437Z,98861.67
2019-03-30T13:55:28.790Z,98866.56
2019-03-30T13:58:04.667Z,98870.30
2019-03-30T14:00:40.959Z,98865.52
2019-03-30T14:03:15.183Z,98864.63
2019-03-30T14:05:51.196Z,98871.64
2019-03-30T14:08:27.400Z,98879.50
2019-03-30T14:11:03.213Z,98873.84
2019-03-30T14:13:38.578Z,98879.58
2019-03-30T14:16:12.842Z,98884.62
2019-03-30T14:18:46.989Z,98879.61
2019-03-30T14:21:21.584Z,98880.81
2019-03-30T14:23:58.663Z,98890.97
2019-03-30T14:26:34.507Z,98893.59
2019-03-30T14:29:09.927Z,98897.64
2019-03-30T14:31:44.015Z,98897.20
2019-03-30T14:34:18.333Z,98899.98
2019-03-30T14:36:52.701Z,98901.86
2019-03-30T14:39:28.296Z,98903.25
2019-03-30T14:42:02.118Z,98899.54
2019-03-30T14:44:36.069Z,98902.89
2019-03-30T14:47:23.313Z,98905.38
2019-03-30T14:49:58.265Z,98906.48
2019-03-30T14:52:35.326Z,98909.58
2019-03-30T14:55:11.371Z,98914.12
2019-03-30T14:57:45.385Z,98915.47
2019-03-30T15:00:20.105Z,98916.89
2019-03-30T15:02:55.939Z,98918.92
2019-03-30T15:05:30.139Z,98913.38
2019-03-30T15:08:04.350Z,98920.42
2019-03-30T15:10:38.495Z,98918.02
2019-03-30T15:13:13.419Z,98918.92
2019-03-30T15:15:47.503Z,98922.15
2019-03-30T15:18:22.071Z,98919.06
2019-03-30T15:20:55.869Z,98926.20
2019-03-30T15:23:29.858Z,98932.39
2019-03-30T15:26:03.817Z,98931.91
2019-03-30T15:28:38.890Z,98924.70
2019-03-30T15:31:12.766Z,98923.73
2019-03-30T15:33:46.960Z,98926.13
2019-03-30T15:36:20.483Z,98925.15
2019-03-30T15:38:57.711Z,98920.59
2019-03-30T15:41:29.410Z,98923.94
2019-03-30T15:44:06.268Z,98924.99
2019-03-30T15:46:40.393Z,98934.22
2019-03-30T15:49:14.438Z,98923.27
2019-03-30T15:51:49.955Z,98930.38
2019-03-30T15:54:30.281Z,98928.66
2019-03-30T15:57:13.934Z,98924.39
2019-03-30T15:59:39.304Z,98921.91
2019-03-30T16:02:14.542Z,98923.25
2019-03-30T16:04:52.458Z,98920.59
2019-03-30T16:07:26.645Z,98922.64
2019-03-30T16:10:01.394Z,98923.33
2019-03-30T16:12:35.986Z,98927.45
2019-03-30T16:15:11.057Z,98919.89
2019-03-30T16:17:45.003Z,98929.09
2019-03-30T16:20:19.352Z,98928.13
2019-03-30T16:22:53.447Z,98928.84
2019-03-30T16:25:27.368Z,98930.75
2019-03-30T16:28:01.621Z,98926.55
2019-03-30T16:30:35.507Z,98931.28
2019-03-30T16:33:09.079Z,98928.00
2019-03-30T16:35:42.777Z,98937.56
2019-03-30T16:38:16.743Z,98938.41
2019-03-30T16:40:52.135Z,98931.61
2019-03-30T16:43:26.228Z,98939.27
2019-03-30T16:46:00.004Z,98941.90
2019-03-30T16:48:33.801Z,98941.37
2019-03-30T16:51:07.661Z,98942.16
2019-03-30T16:53:41.297Z,98945.61
2019-03-30T16:56:16.786Z,98951.48
2019-03-30T16:58:50.461Z,98952.21
2019-03-30T17:01:24.204Z,98958.95
2019-03-30T17:03:59.367Z,98949.41
2019-03-30T17:06:33.189Z,98947.92
2019-03-30T17:09:08.239Z,98947.01
2019-03-30T17:11:43.821Z,98953.88
2019-03-30T17:14:18.065Z,98958.84
2019-03-30T17:16:51.900Z,98958.23
2019-03-30T17:19:25.784Z,98959.41
2019-03-30T17:22:00.865Z,98962.61
2019-03-30T17:24:34.712Z,98962.43
2019-03-30T17:27:08.625Z,98959.44
2019-03-30T17:29:43.049Z,98957.69
2019-03-30T17:32:17.246Z,98962.89
2019-03-30T17:34:51.759Z,98957.92
2019-03-30T17:37:26.132Z,98960.25
2019-03-30T17:40:00.348Z,98956.31
2019-03-30T17:42:38.332Z,98957.44
2019-03-30T17:45:11.517Z,98958.48
2019-03-30T17:47:48.272Z,98953.81
2019-03-30T17:50:21.972Z,98952.13
2019-03-30T17:52:58.076Z,98952.83
2019-03-30T17:55:33.853Z,98945.61
2019-03-30T17:58:13.464Z,98952.08
2019-03-30T18:00:42.865Z,98948.95
2019-03-30T18:03:16.376Z,98953.46
2019-03-30T18:05:51.489Z,98946.44
2019-03-30T18:08:25.112Z,98953.54
2019-03-30T18:10:58.990Z,98948.61
2019-03-30T18:13:32.539Z,98948.95
2019-03-30T18:16:06.522Z,98952.95
2019-03-30T18:18:40.622Z,98951.27
2019-03-30T18:21:14.503Z,98952.21
2019-03-30T18:23:48.972Z,98947.09
2019-03-30T18:26:22.899Z,98955.16
2019-03-30T18:28:56.767Z,98947.02
2019-03-30T18:31:30.447Z,98950.38
2019-03-30T18:34:04.247Z,98948.77
2019-03-30T18:36:41.459Z,98948.13
2019-03-30T18:39:16.394Z,98950.30
2019-03-30T18:41:49.830Z,98956.25
2019-03-30T18:44:23.822Z,98954.44
2019-03-30T18:46:57.686Z,98961.58
2019-03-30T18:49:31.455Z,98950.72
2019-03-30T18:52:06.351Z,98950.95
2019-03-30T18:54:40.638Z,98961.38
2019-03-30T18:57:15.057Z,98966.96
2019-03-30T18:59:49.570Z,98965.69
2019-03-30T19:02:23.638Z,98966.41
2019-03-30T19:04:59.236Z,98964.44
2019-03-30T19:07:32.717Z,98962.63
2019-03-30T19:10:07.838Z,98965.83
2019-03-30T19:12:42.211Z,98965.34
2019-03-30T19:15:16.397Z,98972.78
2019-03-30T19:17:50.337Z,98969.45
2019-03-30T19:20:24.007Z,98969.24
2019-03-30T19:22:59.158Z,98975.27
2019-03-30T19:25:32.821Z,98975.79
2019-03-30T19:28:06.551Z,98974.23
2019-03-30T19:30:42.430Z,98976.69
2019-03-30T19:33:16.124Z,98981.47
2019-03-30T19:35:49.928Z,98977.64
2019-03-30T19:38:24.828Z,98980.33
2019-03-30T19:40:58.868Z,98985.17
2019-03-30T19:43:32.970Z,98992.48
2019-03-30T19:46:06.768Z,98994.66
2019-03-30T19:48:40.471Z,98997.13
2019-03-30T19:51:14.063Z,98995.79
2019-03-30T19:53:47.825Z,99000.34
2019-03-30T19:56:21.106Z,99005.89
2019-03-30T19:59:09.771Z,99011.70
2019-03-30T20:01:32.150Z,99019.33
2019-03-30T20:04:07.793Z,99012.17
2019-03-30T20:06:40.937Z,99019.77
2019-03-30T20:09:14.522Z,99015.81
2019-03-30T20:11:49.809Z,99017.48
2019-03-30T20:14:23.471Z,99024.34
2019-03-30T20:16:57.437Z,99022.30
2019-03-30T20:19:32.466Z,99024.25
2019-03-30T20:22:06.359Z,99026.77
2019-03-30T20:24:40.784Z,99021.33
2019-03-30T20:27:14.333Z,99024.61
2019-03-30T20:29:48.442Z,99025.14
2019-03-30T20:32:22.205Z,99030.87
2019-03-30T20:34:55.885Z,99031.32
2019-03-30T20:37:31.103Z,99035.20
2019-03-30T20:40:10.385Z,99032.05
2019-03-30T20:42:44.431Z,99033.70
2019-03-30T20:45:19.193Z,99044.14
2019-03-30T20:47:53.885Z,99042.50
2019-03-30T20:50:27.570Z,99045.76
2019-03-30T20:53:02.370Z,99047.01
2019-03-30T20:55:35.927Z,99049.17
2019-03-30T20:58:11.143Z,99052.62
2019-03-30T21:00:44.702Z,99055.16
2019-03-30T21:03:17.956Z,99051.19
2019-03-30T21:05:51.561Z,99058.77
2019-03-30T21:08:26.412Z,99061.31
2019-03-30T21:10:59.913Z,99064.30
2019-03-30T21:13:33.365Z,99065.50
2019-03-30T21:16:07.069Z,99065.50
2019-03-30T21:18:42.272Z,99067.82
2019-03-30T21:21:16.862Z,99065.33
2019-03-30T21:23:50.660Z,99072.46
2019-03-30T21:26:24.425Z,99072.05
2019-03-30T21:28:58.355Z,99074.38
2019-03-30T21:31:31.779Z,99077.59
2019-03-30T21:34:05.679Z,99077.36
2019-03-30T21:36:39.541Z,99081.26
2019-03-30T21:39:13.545Z,99081.03
2019-03-30T21:41:47.040Z,99084.88
2019-03-30T21:44:22.319Z,99090.42
2019-03-30T21:46:56.334Z,99085.91
2019-03-30T21:49:31.134Z,99085.91
2019-03-30T21:52:04.925Z,99094.30
2019-03-30T21:54:38.740Z,99099.32
2019-03-30T21:57:12.457Z,99108.36
2019-03-30T21:59:47.263Z,99102.51
2019-03-30T22:02:21.241Z,99105.95
2019-03-30T22:04:54.910Z,99111.42
2019-03-30T22:07:28.959Z,99103.30
2019-03-30T22:10:03.467Z,99100.89
2019-03-30T22:12:37.413Z,99104.53
2019-03-30T22:15:12.111Z,99112.88
2019-03-30T22:17:45.636Z,99106.55
2019-03-30T22:20:21.265Z,99115.04
2019-03-30T22:22:53.742Z,99114.09
2019-03-30T22:25:28.506Z,99124.36
2019-03-30T22:28:02.259Z,99117.77
2019-03-30T22:30:35.833Z,99123.03
2019-03-30T22:33:09.606Z,99131.31
2019-03-30T22:35:43.348Z,99133.11
2019-03-30T22:38:17.226Z,99134.80
2019-03-30T22:40:50.881Z,99136.09
2019-03-30T22:43:24.380Z,99135.20
2019-03-30T22:45:58.647Z,99139.83
2019-03-30T22:48:32.662Z,99136.94
2019-03-30T22:51:06.572Z,99148.31
2019-03-30T22:53:40.053Z,99150.90
2019-03-30T22:56:13.466Z,99149.30
2019-03-30T22:58:47.671Z,99154.86
2019-03-30T23:01:21.087Z,99148.58
2019-03-30T23:03:54.945Z,99149.53
2019-03-30T23:06:28.474Z,99152.77
2019-03-30T23:09:01.972Z,99155.28
2019-03-30T23:11:36.969Z,99151.91
2019-03-30T23:14:18.360Z,99157.56
2019-03-30T23:16:52.121Z,99159.64
2019-03-30T23:19:25.874Z,99155.00
2019-03-30T23:21:59.840Z,99158.72
2019-03-30T23:24:33.527Z,99161.50
2019-03-30T23:27:07.366Z,99160.83
2019-03-30T23:29:41.011Z,99160.29
2019-03-30T23:32:14.641Z,99163.34
2019-03-30T23:34:48.578Z,99157.28
2019-03-30T23:37:22.230Z,99164.97
2019-03-30T23:39:56.869Z,99162.16
2019-03-30T23:42:30.356Z,99163.52
2019-03-30T23:45:04.337Z,99163.66
2019-03-30T23:47:39.186Z,99169.84
2019-03-30T23:50:13.254Z,99167.14
2019-03-30T23:52:48.411Z,99173.07
2019-03-30T23:55:22.520Z,99168.52
2019-03-30T23:57:57.572Z,99170.95
